sensor_id;sensor_type;location;lat;lon;timestamp;temperature;humidity
40622;DHT22;26324;52.040;11.528;2023-03-01T00:01:40;-3275.20;74.00
40622;DHT22;26324;52.040;11.528;2023-03-01T00:04:07;-3275.10;74.70
40622;DHT22;26324;52.040;11.528;2023-03-01T00:06:35;-3275.10;74.80
40622;DHT22;26324;52.040;11.528;2023-03-01T00:09:03;-3275.20;74.30
40622;DHT22;26324;52.040;11.528;2023-03-01T00:11:32;-3275.10;74.70
40622;DHT22;26324;52.040;11.528;2023-03-01T00:14:00;-3275.20;74.70
40622;DHT22;26324;52.040;11.528;2023-03-01T00:16:30;-3275.20;74.70
40622;DHT22;26324;52.040;11.528;2023-03-01T00:18:58;-3275.00;74.80
40622;DHT22;26324;52.040;11.528;2023-03-01T00:21:26;-3274.90;75.50
40622;DHT22;26324;52.040;11.528;2023-03-01T00:23:55;-3274.90;75.30
40622;DHT22;26324;52.040;11.528;2023-03-01T00:26:23;-3275.00;75.30
40622;DHT22;26324;52.040;11.528;2023-03-01T00:28:51;-3275.00;75.50
40622;DHT22;26324;52.040;11.528;2023-03-01T00:31:23;-3274.90;76.20
40622;DHT22;26324;52.040;11.528;2023-03-01T00:33:55;-3274.90;76.10
40622;DHT22;26324;52.040;11.528;2023-03-01T00:36:28;-3274.90;76.50
40622;DHT22;26324;52.040;11.528;2023-03-01T00:39:00;-3274.90;76.10
40622;DHT22;26324;52.040;11.528;2023-03-01T00:41:27;-3274.90;76.40
40622;DHT22;26324;52.040;11.528;2023-03-01T00:43:55;-3274.90;76.00
40622;DHT22;26324;52.040;11.528;2023-03-01T00:46:25;-3274.80;75.90
40622;DHT22;26324;52.040;11.528;2023-03-01T00:48:53;-3274.80;76.30
40622;DHT22;26324;52.040;11.528;2023-03-01T00:51:24;-3274.90;76.30
40622;DHT22;26324;52.040;11.528;2023-03-01T00:53:54;-3274.90;76.20
40622;DHT22;26324;52.040;11.528;2023-03-01T00:56:22;-3274.90;76.40
40622;DHT22;26324;52.040;11.528;2023-03-01T00:58:49;-3274.90;76.30
40622;DHT22;26324;52.040;11.528;2023-03-01T01:01:21;-3274.80;76.70
40622;DHT22;26324;52.040;11.528;2023-03-01T01:03:55;-3274.80;76.90
40622;DHT22;26324;52.040;11.528;2023-03-01T01:06:28;-3274.70;76.90
40622;DHT22;26324;52.040;11.528;2023-03-01T01:08:56;-3274.50;77.00
40622;DHT22;26324;52.040;11.528;2023-03-01T01:11:26;-3274.40;76.60
40622;DHT22;26324;52.040;11.528;2023-03-01T01:13:55;-3274.40;77.20
40622;DHT22;26324;52.040;11.528;2023-03-01T01:16:24;-3274.30;77.20
40622;DHT22;26324;52.040;11.528;2023-03-01T01:18:53;-3274.30;77.50
40622;DHT22;26324;52.040;11.528;2023-03-01T01:21:23;-3274.20;77.80
40622;DHT22;26324;52.040;11.528;2023-03-01T01:23:51;-3274.50;77.60
40622;DHT22;26324;52.040;11.528;2023-03-01T01:26:21;-3274.50;78.00
40622;DHT22;26324;52.040;11.528;2023-03-01T01:28:50;-3274.40;77.90
40622;DHT22;26324;52.040;11.528;2023-03-01T01:31:18;-3274.40;77.70
40622;DHT22;26324;52.040;11.528;2023-03-01T01:33:46;-3274.30;77.30
40622;DHT22;26324;52.040;11.528;2023-03-01T01:36:13;-3274.40;77.40
40622;DHT22;26324;52.040;11.528;2023-03-01T01:38:41;-3274.50;77.30
40622;DHT22;26324;52.040;11.528;2023-03-01T01:41:10;-3274.50;77.30
40622;DHT22;26324;52.040;11.528;2023-03-01T01:43:46;-3274.50;77.40
40622;DHT22;26324;52.040;11.528;2023-03-01T01:46:31;-3274.50;77.50
40622;DHT22;26324;52.040;11.528;2023-03-01T01:49:03;-3274.40;77.40
40622;DHT22;26324;52.040;11.528;2023-03-01T01:51:38;-3274.40;77.30
40622;DHT22;26324;52.040;11.528;2023-03-01T01:54:14;-3274.40;77.50
40622;DHT22;26324;52.040;11.528;2023-03-01T01:56:48;-3274.30;77.50
40622;DHT22;26324;52.040;11.528;2023-03-01T01:59:17;-3274.20;77.70
40622;DHT22;26324;52.040;11.528;2023-03-01T02:01:44;-3274.20;77.50
40622;DHT22;26324;52.040;11.528;2023-03-01T02:04:12;-3274.30;77.50
40622;DHT22;26324;52.040;11.528;2023-03-01T02:06:48;-3274.10;77.80
40622;DHT22;26324;52.040;11.528;2023-03-01T02:09:20;-3274.00;78.20
40622;DHT22;26324;52.040;11.528;2023-03-01T02:11:50;-3274.00;78.50
40622;DHT22;26324;52.040;11.528;2023-03-01T02:14:18;-3274.00;78.10
40622;DHT22;26324;52.040;11.528;2023-03-01T02:16:45;-3273.90;78.00
40622;DHT22;26324;52.040;11.528;2023-03-01T02:19:21;-3273.90;78.20
40622;DHT22;26324;52.040;11.528;2023-03-01T02:22:06;-3273.90;78.30
40622;DHT22;26324;52.040;11.528;2023-03-01T02:24:58;-3273.80;78.80
40622;DHT22;26324;52.040;11.528;2023-03-01T02:27:40;-3273.80;78.50
40622;DHT22;26324;52.040;11.528;2023-03-01T02:30:09;-3273.80;78.30
40622;DHT22;26324;52.040;11.528;2023-03-01T02:32:40;-3273.80;77.10
40622;DHT22;26324;52.040;11.528;2023-03-01T02:35:12;-3273.70;77.00
40622;DHT22;26324;52.040;11.528;2023-03-01T02:37:41;-3273.70;77.70
40622;DHT22;26324;52.040;11.528;2023-03-01T02:40:17;-3273.60;77.90
40622;DHT22;26324;52.040;11.528;2023-03-01T02:42:54;-3273.70;78.30
40622;DHT22;26324;52.040;11.528;2023-03-01T02:45:23;-3273.60;78.80
40622;DHT22;26324;52.040;11.528;2023-03-01T02:47:54;-3273.60;78.70
40622;DHT22;26324;52.040;11.528;2023-03-01T02:53:04;-3273.50;78.30
40622;DHT22;26324;52.040;11.528;2023-03-01T02:55:35;-3273.50;78.60
40622;DHT22;26324;52.040;11.528;2023-03-01T02:58:03;-3273.60;78.40
40622;DHT22;26324;52.040;11.528;2023-03-01T03:00:40;-3273.50;78.90
40622;DHT22;26324;52.040;11.528;2023-03-01T03:03:20;-3273.70;78.40
40622;DHT22;26324;52.040;11.528;2023-03-01T03:05:48;-3273.70;77.80
40622;DHT22;26324;52.040;11.528;2023-03-01T03:08:15;-3273.70;77.70
40622;DHT22;26324;52.040;11.528;2023-03-01T03:10:51;-3273.80;77.70
40622;DHT22;26324;52.040;11.528;2023-03-01T03:13:19;-3273.60;77.90
40622;DHT22;26324;52.040;11.528;2023-03-01T03:15:49;-3273.50;78.30
40622;DHT22;26324;52.040;11.528;2023-03-01T03:18:17;-3273.40;78.40
40622;DHT22;26324;52.040;11.528;2023-03-01T03:20:45;-3273.20;78.40
40622;DHT22;26324;52.040;11.528;2023-03-01T03:23:13;-3273.20;78.90
40622;DHT22;26324;52.040;11.528;2023-03-01T03:25:40;-3273.20;79.20
40622;DHT22;26324;52.040;11.528;2023-03-01T03:28:08;-3273.10;79.30
40622;DHT22;26324;52.040;11.528;2023-03-01T03:30:40;-3273.10;79.60
40622;DHT22;26324;52.040;11.528;2023-03-01T03:33:09;-3273.10;79.30
40622;DHT22;26324;52.040;11.528;2023-03-01T03:35:42;-3273.00;79.80
40622;DHT22;26324;52.040;11.528;2023-03-01T03:38:11;-3273.00;79.80
40622;DHT22;26324;52.040;11.528;2023-03-01T03:40:48;-3273.00;80.10
40622;DHT22;26324;52.040;11.528;2023-03-01T03:43:18;-3273.00;80.70
40622;DHT22;26324;52.040;11.528;2023-03-01T03:45:47;-3272.90;80.20
40622;DHT22;26324;52.040;11.528;2023-03-01T03:48:16;-3273.00;80.20
40622;DHT22;26324;52.040;11.528;2023-03-01T03:50:48;-3273.00;79.50
40622;DHT22;26324;52.040;11.528;2023-03-01T03:53:16;-3273.10;79.60
40622;DHT22;26324;52.040;11.528;2023-03-01T03:55:44;-3273.10;79.70
40622;DHT22;26324;52.040;11.528;2023-03-01T03:58:11;-3273.20;79.40
40622;DHT22;26324;52.040;11.528;2023-03-01T04:00:41;-3273.20;79.70
40622;DHT22;26324;52.040;11.528;2023-03-01T04:03:10;-3273.10;79.80
40622;DHT22;26324;52.040;11.528;2023-03-01T04:05:38;-3273.20;79.70
40622;DHT22;26324;52.040;11.528;2023-03-01T04:08:06;-3273.30;79.20
40622;DHT22;26324;52.040;11.528;2023-03-01T04:10:41;-3273.30;79.00
40622;DHT22;26324;52.040;11.528;2023-03-01T04:13:12;-3273.40;78.80
40622;DHT22;26324;52.040;11.528;2023-03-01T04:15:40;-3273.40;78.60
40622;DHT22;26324;52.040;11.528;2023-03-01T04:18:15;-3273.30;78.80
40622;DHT22;26324;52.040;11.528;2023-03-01T04:20:43;-3273.20;79.10
40622;DHT22;26324;52.040;11.528;2023-03-01T04:23:19;-3273.20;79.20
40622;DHT22;26324;52.040;11.528;2023-03-01T04:25:58;-3273.10;79.40
40622;DHT22;26324;52.040;11.528;2023-03-01T04:31:12;-3273.10;79.80
40622;DHT22;26324;52.040;11.528;2023-03-01T04:33:47;-3272.90;80.40
40622;DHT22;26324;52.040;11.528;2023-03-01T04:36:18;-3272.90;80.40
40622;DHT22;26324;52.040;11.528;2023-03-01T04:38:46;-3272.90;80.40
40622;DHT22;26324;52.040;11.528;2023-03-01T04:41:18;-3272.80;80.40
40622;DHT22;26324;52.040;11.528;2023-03-01T04:43:46;-3272.70;80.50
40622;DHT22;26324;52.040;11.528;2023-03-01T04:46:15;-3272.60;80.40
40622;DHT22;26324;52.040;11.528;2023-03-01T04:48:43;-3272.50;80.50
40622;DHT22;26324;52.040;11.528;2023-03-01T04:51:11;-3272.50;80.90
40622;DHT22;26324;52.040;11.528;2023-03-01T04:53:42;-3272.70;80.90
40622;DHT22;26324;52.040;11.528;2023-03-01T04:56:09;-3272.60;81.00
40622;DHT22;26324;52.040;11.528;2023-03-01T04:58:37;-3272.60;80.80
40622;DHT22;26324;52.040;11.528;2023-03-01T05:01:11;-3272.50;81.10
40622;DHT22;26324;52.040;11.528;2023-03-01T05:03:48;-3272.60;80.80
40622;DHT22;26324;52.040;11.528;2023-03-01T05:06:16;-3272.50;80.40
40622;DHT22;26324;52.040;11.528;2023-03-01T05:08:44;-3272.50;80.50
40622;DHT22;26324;52.040;11.528;2023-03-01T05:11:13;-3272.50;81.10
40622;DHT22;26324;52.040;11.528;2023-03-01T05:13:41;-3272.50;81.50
40622;DHT22;26324;52.040;11.528;2023-03-01T05:16:09;-3272.50;81.60
40622;DHT22;26324;52.040;11.528;2023-03-01T05:18:40;-3272.50;81.10
40622;DHT22;26324;52.040;11.528;2023-03-01T05:21:14;-3272.50;81.20
40622;DHT22;26324;52.040;11.528;2023-03-01T05:23:44;-3272.60;81.40
40622;DHT22;26324;52.040;11.528;2023-03-01T05:26:12;-3272.60;81.60
40622;DHT22;26324;52.040;11.528;2023-03-01T05:28:54;-3272.60;81.40
40622;DHT22;26324;52.040;11.528;2023-03-01T05:31:25;-3272.50;81.40
40622;DHT22;26324;52.040;11.528;2023-03-01T05:33:52;-3272.50;81.50
40622;DHT22;26324;52.040;11.528;2023-03-01T05:36:20;-3272.50;81.30
40622;DHT22;26324;52.040;11.528;2023-03-01T05:38:47;-3272.40;81.40
40622;DHT22;26324;52.040;11.528;2023-03-01T05:41:18;-3272.40;81.90
40622;DHT22;26324;52.040;11.528;2023-03-01T05:43:46;-3272.40;82.50
40622;DHT22;26324;52.040;11.528;2023-03-01T05:46:14;-3272.40;82.70
40622;DHT22;26324;52.040;11.528;2023-03-01T05:48:42;-3272.40;82.30
40622;DHT22;26324;52.040;11.528;2023-03-01T05:51:16;-3272.40;82.10
40622;DHT22;26324;52.040;11.528;2023-03-01T05:53:44;-3272.30;81.60
40622;DHT22;26324;52.040;11.528;2023-03-01T05:56:12;-3272.30;82.10
40622;DHT22;26324;52.040;11.528;2023-03-01T05:58:39;-3272.30;82.20
40622;DHT22;26324;52.040;11.528;2023-03-01T06:01:11;-3272.30;82.40
40622;DHT22;26324;52.040;11.528;2023-03-01T06:03:40;-3272.30;81.80
40622;DHT22;26324;52.040;11.528;2023-03-01T06:06:07;-3272.20;81.90
40622;DHT22;26324;52.040;11.528;2023-03-01T06:08:35;-3272.20;82.00
40622;DHT22;26324;52.040;11.528;2023-03-01T06:11:03;-3272.20;82.50
40622;DHT22;26324;52.040;11.528;2023-03-01T06:13:32;-3272.30;82.80
40622;DHT22;26324;52.040;11.528;2023-03-01T06:16:06;-3272.20;82.90
40622;DHT22;26324;52.040;11.528;2023-03-01T06:18:34;-3272.20;82.80
40622;DHT22;26324;52.040;11.528;2023-03-01T06:21:01;-3272.30;82.60
40622;DHT22;26324;52.040;11.528;2023-03-01T06:23:29;-3272.40;82.60
40622;DHT22;26324;52.040;11.528;2023-03-01T06:25:58;-3272.40;81.90
40622;DHT22;26324;52.040;11.528;2023-03-01T06:28:30;-3272.40;82.10
40622;DHT22;26324;52.040;11.528;2023-03-01T06:30:57;-3272.40;82.30
40622;DHT22;26324;52.040;11.528;2023-03-01T06:33:25;-3272.40;82.60
40622;DHT22;26324;52.040;11.528;2023-03-01T06:35:56;-3272.40;82.50
40622;DHT22;26324;52.040;11.528;2023-03-01T06:38:24;-3272.50;82.80
40622;DHT22;26324;52.040;11.528;2023-03-01T06:40:54;-3272.50;82.80
40622;DHT22;26324;52.040;11.528;2023-03-01T06:43:24;-3272.70;82.50
40622;DHT22;26324;52.040;11.528;2023-03-01T06:45:51;-3272.80;82.20
40622;DHT22;26324;52.040;11.528;2023-03-01T06:48:18;-3273.00;82.00
40622;DHT22;26324;52.040;11.528;2023-03-01T06:50:46;-3273.10;81.60
40622;DHT22;26324;52.040;11.528;2023-03-01T06:53:14;-3273.30;81.60
40622;DHT22;26324;52.040;11.528;2023-03-01T06:55:42;-3273.50;81.60
40622;DHT22;26324;52.040;11.528;2023-03-01T06:58:09;-3273.70;81.70
40622;DHT22;26324;52.040;11.528;2023-03-01T07:00:37;-3273.80;81.80
40622;DHT22;26324;52.040;11.528;2023-03-01T07:03:04;-3273.80;81.50
40622;DHT22;26324;52.040;11.528;2023-03-01T07:05:33;-3273.70;82.00
40622;DHT22;26324;52.040;11.528;2023-03-01T07:08:00;-3273.80;82.50
40622;DHT22;26324;52.040;11.528;2023-03-01T07:10:27;-3273.80;82.90
40622;DHT22;26324;52.040;11.528;2023-03-01T07:12:56;-3273.90;83.10
40622;DHT22;26324;52.040;11.528;2023-03-01T07:15:25;-3274.10;83.20
40622;DHT22;26324;52.040;11.528;2023-03-01T07:17:53;-3274.20;83.00
40622;DHT22;26324;52.040;11.528;2023-03-01T07:20:21;-3274.20;82.90
40622;DHT22;26324;52.040;11.528;2023-03-01T07:22:52;-3274.30;83.00
40622;DHT22;26324;52.040;11.528;2023-03-01T07:25:20;-3274.40;83.00
40622;DHT22;26324;52.040;11.528;2023-03-01T07:27:53;-3274.40;83.10
40622;DHT22;26324;52.040;11.528;2023-03-01T07:30:21;-3274.50;83.30
40622;DHT22;26324;52.040;11.528;2023-03-01T07:32:48;-3274.70;83.20
40622;DHT22;26324;52.040;11.528;2023-03-01T07:35:16;-3274.80;82.90
40622;DHT22;26324;52.040;11.528;2023-03-01T07:37:43;-3274.90;82.80
40622;DHT22;26324;52.040;11.528;2023-03-01T07:40:11;-3275.10;82.30
40622;DHT22;26324;52.040;11.528;2023-03-01T07:42:40;-3275.20;82.30
40622;DHT22;26324;52.040;11.528;2023-03-01T07:45:07;-3275.50;82.20
40622;DHT22;26324;52.040;11.528;2023-03-01T07:47:35;-3275.80;80.90
40622;DHT22;26324;52.040;11.528;2023-03-01T07:50:03;-3276.00;79.80
40622;DHT22;26324;52.040;11.528;2023-03-01T07:52:31;-3276.10;78.80
40622;DHT22;26324;52.040;11.528;2023-03-01T07:54:59;-3276.30;78.50
40622;DHT22;26324;52.040;11.528;2023-03-01T07:57:26;-3276.40;78.40
40622;DHT22;26324;52.040;11.528;2023-03-01T07:59:53;-3276.60;78.50
40622;DHT22;26324;52.040;11.528;2023-03-01T08:02:21;-3276.70;78.40
40622;DHT22;26324;52.040;11.528;2023-03-01T08:04:48;0.00;78.00
40622;DHT22;26324;52.040;11.528;2023-03-01T08:07:15;0.00;77.80
40622;DHT22;26324;52.040;11.528;2023-03-01T08:09:42;0.10;77.30
40622;DHT22;26324;52.040;11.528;2023-03-01T08:12:10;0.20;77.10
40622;DHT22;26324;52.040;11.528;2023-03-01T08:14:37;0.30;77.10
40622;DHT22;26324;52.040;11.528;2023-03-01T08:17:04;0.40;77.20
40622;DHT22;26324;52.040;11.528;2023-03-01T08:19:31;0.50;77.40
40622;DHT22;26324;52.040;11.528;2023-03-01T08:22:01;0.60;77.70
40622;DHT22;26324;52.040;11.528;2023-03-01T08:24:29;0.80;76.30
40622;DHT22;26324;52.040;11.528;2023-03-01T08:26:56;1.00;75.70
40622;DHT22;26324;52.040;11.528;2023-03-01T08:29:24;1.00;75.20
40622;DHT22;26324;52.040;11.528;2023-03-01T08:31:51;1.30;74.40
40622;DHT22;26324;52.040;11.528;2023-03-01T08:34:19;1.30;73.30
40622;DHT22;26324;52.040;11.528;2023-03-01T08:36:46;1.50;73.20
40622;DHT22;26324;52.040;11.528;2023-03-01T08:39:16;1.60;72.80
40622;DHT22;26324;52.040;11.528;2023-03-01T08:41:43;1.90;72.40
40622;DHT22;26324;52.040;11.528;2023-03-01T08:44:15;2.10;71.50
40622;DHT22;26324;52.040;11.528;2023-03-01T08:46:44;2.30;71.20
40622;DHT22;26324;52.040;11.528;2023-03-01T08:49:17;2.40;70.40
40622;DHT22;26324;52.040;11.528;2023-03-01T08:51:46;2.70;70.00
40622;DHT22;26324;52.040;11.528;2023-03-01T08:54:16;2.90;68.70
40622;DHT22;26324;52.040;11.528;2023-03-01T08:56:45;3.00;66.90
40622;DHT22;26324;52.040;11.528;2023-03-01T08:59:13;3.10;66.50
40622;DHT22;26324;52.040;11.528;2023-03-01T09:01:41;3.10;67.20
40622;DHT22;26324;52.040;11.528;2023-03-01T09:04:11;3.30;67.30
40622;DHT22;26324;52.040;11.528;2023-03-01T09:06:39;3.30;67.60
40622;DHT22;26324;52.040;11.528;2023-03-01T09:09:10;3.40;67.90
40622;DHT22;26324;52.040;11.528;2023-03-01T09:11:39;3.60;66.10
40622;DHT22;26324;52.040;11.528;2023-03-01T09:14:06;3.80;66.40
40622;DHT22;26324;52.040;11.528;2023-03-01T09:16:34;4.00;65.10
40622;DHT22;26324;52.040;11.528;2023-03-01T09:19:04;4.00;64.50
40622;DHT22;26324;52.040;11.528;2023-03-01T09:21:31;4.00;65.30
40622;DHT22;26324;52.040;11.528;2023-03-01T09:24:15;4.10;65.60
40622;DHT22;26324;52.040;11.528;2023-03-01T09:26:43;4.20;64.80
40622;DHT22;26324;52.040;11.528;2023-03-01T09:29:15;4.40;65.10
40622;DHT22;26324;52.040;11.528;2023-03-01T09:31:43;4.50;64.00
40622;DHT22;26324;52.040;11.528;2023-03-01T09:34:10;4.60;62.10
40622;DHT22;26324;52.040;11.528;2023-03-01T09:36:37;4.70;61.30
40622;DHT22;26324;52.040;11.528;2023-03-01T09:39:05;4.80;60.60
40622;DHT22;26324;52.040;11.528;2023-03-01T09:41:46;4.90;60.40
40622;DHT22;26324;52.040;11.528;2023-03-01T09:47:12;5.10;58.60
40622;DHT22;26324;52.040;11.528;2023-03-01T09:49:43;5.30;58.80
40622;DHT22;26324;52.040;11.528;2023-03-01T09:54:58;5.60;57.80
40622;DHT22;26324;52.040;11.528;2023-03-01T09:57:48;5.70;58.30
40622;DHT22;26324;52.040;11.528;2023-03-01T10:00:37;6.00;55.90
40622;DHT22;26324;52.040;11.528;2023-03-01T10:03:31;6.10;55.00
40622;DHT22;26324;52.040;11.528;2023-03-01T10:06:14;6.20;55.10
40622;DHT22;26324;52.040;11.528;2023-03-01T10:09:22;6.40;54.50
40622;DHT22;26324;52.040;11.528;2023-03-01T10:11:51;6.60;53.10
40622;DHT22;26324;52.040;11.528;2023-03-01T10:14:27;6.60;50.90
40622;DHT22;26324;52.040;11.528;2023-03-01T10:19:41;6.80;51.00
40622;DHT22;26324;52.040;11.528;2023-03-01T10:24:42;7.30;48.50
40622;DHT22;26324;52.040;11.528;2023-03-01T10:32:58;7.80;48.60
40622;DHT22;26324;52.040;11.528;2023-03-01T10:35:29;8.00;47.00
40622;DHT22;26324;52.040;11.528;2023-03-01T10:40:32;8.40;45.50
40622;DHT22;26324;52.040;11.528;2023-03-01T10:43:04;8.60;45.20
40622;DHT22;26324;52.040;11.528;2023-03-01T10:45:36;8.90;44.60
40622;DHT22;26324;52.040;11.528;2023-03-01T10:50:35;9.10;42.80
40622;DHT22;26324;52.040;11.528;2023-03-01T10:53:27;9.30;42.40
40622;DHT22;26324;52.040;11.528;2023-03-01T10:56:08;9.40;41.90
40622;DHT22;26324;52.040;11.528;2023-03-01T10:58:38;9.40;41.30
40622;DHT22;26324;52.040;11.528;2023-03-01T11:01:25;9.60;41.90
40622;DHT22;26324;52.040;11.528;2023-03-01T11:06:44;9.90;41.30
40622;DHT22;26324;52.040;11.528;2023-03-01T11:09:25;10.00;41.00
40622;DHT22;26324;52.040;11.528;2023-03-01T11:12:00;10.10;40.80
40622;DHT22;26324;52.040;11.528;2023-03-01T11:14:38;10.10;40.70
40622;DHT22;26324;52.040;11.528;2023-03-01T11:17:30;10.20;40.50
40622;DHT22;26324;52.040;11.528;2023-03-01T11:22:55;10.00;40.90
40622;DHT22;26324;52.040;11.528;2023-03-01T11:25:26;10.10;41.90
40622;DHT22;26324;52.040;11.528;2023-03-01T11:27:55;10.20;40.80
40622;DHT22;26324;52.040;11.528;2023-03-01T11:35:37;10.30;43.00
40622;DHT22;26324;52.040;11.528;2023-03-01T11:38:27;10.30;38.90
40622;DHT22;26324;52.040;11.528;2023-03-01T11:49:12;10.60;39.70
40622;DHT22;26324;52.040;11.528;2023-03-01T12:00:45;10.60;37.40
40622;DHT22;26324;52.040;11.528;2023-03-01T12:03:28;10.50;37.40
40622;DHT22;26324;52.040;11.528;2023-03-01T12:06:01;10.30;38.10
40622;DHT22;26324;52.040;11.528;2023-03-01T12:11:16;10.60;40.40
40622;DHT22;26324;52.040;11.528;2023-03-01T12:16:56;11.10;39.50
40622;DHT22;26324;52.040;11.528;2023-03-01T12:22:53;11.30;37.40
40622;DHT22;26324;52.040;11.528;2023-03-01T12:25:44;11.30;36.50
40622;DHT22;26324;52.040;11.528;2023-03-01T12:31:01;11.60;33.40
40622;DHT22;26324;52.040;11.528;2023-03-01T12:36:23;12.00;35.00
40622;DHT22;26324;52.040;11.528;2023-03-01T12:39:25;12.10;35.40
40622;DHT22;26324;52.040;11.528;2023-03-01T12:42:12;12.30;34.30
40622;DHT22;26324;52.040;11.528;2023-03-01T12:48:21;12.70;33.40
40622;DHT22;26324;52.040;11.528;2023-03-01T12:50:53;12.70;33.30
40622;DHT22;26324;52.040;11.528;2023-03-01T12:53:24;12.90;33.20
40622;DHT22;26324;52.040;11.528;2023-03-01T12:55:56;12.80;32.70
40622;DHT22;26324;52.040;11.528;2023-03-01T13:01:53;13.10;32.70
40622;DHT22;26324;52.040;11.528;2023-03-01T13:04:57;13.30;30.60
40622;DHT22;26324;52.040;11.528;2023-03-01T13:07:34;12.90;32.40
40622;DHT22;26324;52.040;11.528;2023-03-01T13:15:27;13.40;33.70
40622;DHT22;26324;52.040;11.528;2023-03-01T13:18:00;13.80;32.80
40622;DHT22;26324;52.040;11.528;2023-03-01T13:31:01;15.70;27.30
40622;DHT22;26324;52.040;11.528;2023-03-01T13:35:58;16.90;26.40
40622;DHT22;26324;52.040;11.528;2023-03-01T13:38:46;17.20;25.30
40622;DHT22;26324;52.040;11.528;2023-03-01T13:41:16;17.90;26.20
40622;DHT22;26324;52.040;11.528;2023-03-01T13:43:46;18.60;25.20
40622;DHT22;26324;52.040;11.528;2023-03-01T13:46:20;19.10;23.30
40622;DHT22;26324;52.040;11.528;2023-03-01T13:48:56;19.50;23.90
40622;DHT22;26324;52.040;11.528;2023-03-01T13:51:26;19.30;23.80
40622;DHT22;26324;52.040;11.528;2023-03-01T13:53:55;19.60;22.40
40622;DHT22;26324;52.040;11.528;2023-03-01T13:56:27;19.90;23.20
40622;DHT22;26324;52.040;11.528;2023-03-01T13:59:17;20.30;22.20
40622;DHT22;26324;52.040;11.528;2023-03-01T14:01:52;20.80;21.60
40622;DHT22;26324;52.040;11.528;2023-03-01T14:04:30;21.30;20.90
40622;DHT22;26324;52.040;11.528;2023-03-01T14:07:21;21.30;20.90
40622;DHT22;26324;52.040;11.528;2023-03-01T14:10:05;21.30;20.00
40622;DHT22;26324;52.040;11.528;2023-03-01T14:13:02;21.70;20.80
40622;DHT22;26324;52.040;11.528;2023-03-01T14:15:59;22.30;19.50
40622;DHT22;26324;52.040;11.528;2023-03-01T14:18:51;22.60;19.60
40622;DHT22;26324;52.040;11.528;2023-03-01T14:21:20;23.10;19.30
40622;DHT22;26324;52.040;11.528;2023-03-01T14:23:49;23.30;18.50
40622;DHT22;26324;52.040;11.528;2023-03-01T14:26:21;23.50;17.80
40622;DHT22;26324;52.040;11.528;2023-03-01T14:28:50;23.10;17.70
40622;DHT22;26324;52.040;11.528;2023-03-01T14:31:38;23.10;18.20
40622;DHT22;26324;52.040;11.528;2023-03-01T14:34:21;23.20;18.40
40622;DHT22;26324;52.040;11.528;2023-03-01T14:36:49;23.30;17.80
40622;DHT22;26324;52.040;11.528;2023-03-01T14:39:19;23.50;18.10
40622;DHT22;26324;52.040;11.528;2023-03-01T14:41:47;23.90;17.40
40622;DHT22;26324;52.040;11.528;2023-03-01T14:44:23;24.00;17.00
40622;DHT22;26324;52.040;11.528;2023-03-01T14:46:54;24.00;16.40
40622;DHT22;26324;52.040;11.528;2023-03-01T14:49:25;24.00;16.70
40622;DHT22;26324;52.040;11.528;2023-03-01T14:52:02;23.90;17.00
40622;DHT22;26324;52.040;11.528;2023-03-01T14:54:41;23.80;16.50
40622;DHT22;26324;52.040;11.528;2023-03-01T14:57:15;23.90;16.90
40622;DHT22;26324;52.040;11.528;2023-03-01T14:59:43;24.00;16.50
40622;DHT22;26324;52.040;11.528;2023-03-01T15:02:17;24.00;16.90
40622;DHT22;26324;52.040;11.528;2023-03-01T15:04:46;24.00;17.00
40622;DHT22;26324;52.040;11.528;2023-03-01T15:07:15;24.00;17.20
40622;DHT22;26324;52.040;11.528;2023-03-01T15:09:44;24.00;17.20
40622;DHT22;26324;52.040;11.528;2023-03-01T15:14:56;24.20;17.00
40622;DHT22;26324;52.040;11.528;2023-03-01T15:17:35;24.10;17.30
40622;DHT22;26324;52.040;11.528;2023-03-01T15:20:06;24.00;17.00
40622;DHT22;26324;52.040;11.528;2023-03-01T15:22:35;24.00;16.80
40622;DHT22;26324;52.040;11.528;2023-03-01T15:25:02;23.90;16.70
40622;DHT22;26324;52.040;11.528;2023-03-01T15:27:30;23.90;17.00
40622;DHT22;26324;52.040;11.528;2023-03-01T15:29:59;23.70;17.10
40622;DHT22;26324;52.040;11.528;2023-03-01T15:32:34;23.40;17.00
40622;DHT22;26324;52.040;11.528;2023-03-01T15:35:41;23.20;18.40
40622;DHT22;26324;52.040;11.528;2023-03-01T15:41:01;23.20;17.70
40622;DHT22;26324;52.040;11.528;2023-03-01T15:43:38;23.10;18.30
40622;DHT22;26324;52.040;11.528;2023-03-01T15:46:16;23.10;18.00
40622;DHT22;26324;52.040;11.528;2023-03-01T15:48:49;23.00;17.80
40622;DHT22;26324;52.040;11.528;2023-03-01T15:51:26;22.80;18.40
40622;DHT22;26324;52.040;11.528;2023-03-01T15:53:55;22.60;18.70
40622;DHT22;26324;52.040;11.528;2023-03-01T15:56:25;22.20;19.40
40622;DHT22;26324;52.040;11.528;2023-03-01T15:58:52;22.10;18.60
40622;DHT22;26324;52.040;11.528;2023-03-01T16:01:20;21.80;19.50
40622;DHT22;26324;52.040;11.528;2023-03-01T16:03:48;21.60;19.10
40622;DHT22;26324;52.040;11.528;2023-03-01T16:06:16;21.30;19.30
40622;DHT22;26324;52.040;11.528;2023-03-01T16:08:43;21.00;19.60
40622;DHT22;26324;52.040;11.528;2023-03-01T16:11:20;20.50;20.30
40622;DHT22;26324;52.040;11.528;2023-03-01T16:13:48;19.50;21.10
40622;DHT22;26324;52.040;11.528;2023-03-01T16:16:16;18.60;22.00
40622;DHT22;26324;52.040;11.528;2023-03-01T16:18:45;18.10;22.80
40622;DHT22;26324;52.040;11.528;2023-03-01T16:21:23;17.10;23.40
40622;DHT22;26324;52.040;11.528;2023-03-01T16:23:52;15.80;24.70
40622;DHT22;26324;52.040;11.528;2023-03-01T16:26:19;14.30;26.20
40622;DHT22;26324;52.040;11.528;2023-03-01T16:28:48;13.20;28.10
40622;DHT22;26324;52.040;11.528;2023-03-01T16:31:19;12.30;29.90
40622;DHT22;26324;52.040;11.528;2023-03-01T16:33:47;11.60;31.20
40622;DHT22;26324;52.040;11.528;2023-03-01T16:36:19;11.00;32.00
40622;DHT22;26324;52.040;11.528;2023-03-01T16:38:46;10.50;32.30
40622;DHT22;26324;52.040;11.528;2023-03-01T16:41:20;10.20;32.80
40622;DHT22;26324;52.040;11.528;2023-03-01T16:43:48;9.90;33.40
40622;DHT22;26324;52.040;11.528;2023-03-01T16:46:25;9.60;33.90
40622;DHT22;26324;52.040;11.528;2023-03-01T16:48:54;9.30;34.90
40622;DHT22;26324;52.040;11.528;2023-03-01T16:51:22;9.00;37.20
40622;DHT22;26324;52.040;11.528;2023-03-01T16:53:51;8.80;37.70
40622;DHT22;26324;52.040;11.528;2023-03-01T16:56:20;8.60;38.50
40622;DHT22;26324;52.040;11.528;2023-03-01T16:58:47;8.30;38.00
40622;DHT22;26324;52.040;11.528;2023-03-01T17:01:17;8.10;37.70
40622;DHT22;26324;52.040;11.528;2023-03-01T17:03:46;7.80;39.40
40622;DHT22;26324;52.040;11.528;2023-03-01T17:06:15;7.50;40.90